Thursday, May 26, 2016
22:26 UTC
  |  Log In   |  Register Free
Airport Search:

Bishop International Airport
(KFNT)

FAA data valid effective Mar 31 2016 - May 26 2016 (unless otherwise noted).

 
 
 
 
 
 
 
 
 
 
 
 
 
 
Current Aviation Weather for KFNT

Weather Summary


The most recent METAR observation for FNT was updated at: 13:01 UTC
METAR for KFNT is not available. Closest METAR is for KRNP
KFNT  (most recent observation was updatred at 26:21 UTC)
262153Z 18009KT 10SM BKN055 30/17 A2987 RMK AO2 SLP110 T03000167

KRNP  (17.4 nm SE)   (most recent observation was updated at 26:22 UTC)
262215Z AUTO 20008KT 10SM SCT049 28/18 A2986 RMK AO2 T02830178

KD95  (21.6 nm SW)   (most recent observation was updated at 26:22 UTC)
262212Z AUTO 22008KT 10SM SCT050 29/15 A2988 RMK AO2 T02900146

TAF for KFNT is not available.
KFNT
AMD 262008Z 2620/2718 22010KT P6SM SCT045 BKN200 FM270100 VRB04KT P6SM SCT050 BKN150 FM270900 20005KT 3SM BR SCT018 BKN200 FM271300 20009KT P6SM BKN035

KPTK  (23.0 nm NW)   (most recent observation was updatred at 26:20 UTC)
AMD 262006Z 2620/2718 22009KT P6SM SCT045 BKN200 FM270100 VRB04KT P6SM SCT050 BKN150 FM270900 20005KT 4SM BR SCT018 BKN200 FM271300 20009KT P6SM BKN035
GlobalAir.com is loading additional information.
 Current Weather at FNT
87.0 F° (30.6 C°)

Southwest winds at 11.5 mph
Pressure:
29.89 in
Humidity:
42%
Wind:
Southwest at 11.5 mph
Dew Point:
61.0 F° (16.1 C°)
Visibility:
10.00 mi
FNT NOAA Radar




Find All Airport Services Find A Hotel Find A Rental Car Find A Golf Course Find A Restaurant $100 Hamburger



Airport Weather Forecast for KFNT

Translated METAR for KFNT (2153 UTC)
METAR:
KFNT 262153Z 18009KT 10SM BKN055 30/17 A2987 RMK AO2 SLP110 T03000167
Conditions at:
KFNT (Bishop Intl, MI) observed 2153 UTC 26 May 2016
Temperature:
30°C (86°F)
Dewpoint:
17°C (62.6°F) [RH = 45.6]
Pressure:
29.87 inches Hg (1011.5 mb)
pressure at sea level is 110 in Hg
Winds:
from the S (180 degrees) at 10.4 mph (9 knots: 4.6 m/s)
Visibility:
10 mile(s)
Ceiling:
5,500 feet AGL
Clouds:
Broken Cloud Cover at 5,500 feet AGL
Remarks:
site is automated and HAS a precipitation sensor

Translated TAF for KFNT (Bishop Intl, MI) (2008 UTC)
TAF text:
KFNT 262008Z 2620/2718 22010KT P6SM SCT045 BKN200
Forecast period:
Thursday May 26 2016 20:00 UTC - Friday May 27 2016 18:00 UTC
Forecast type:
FROM: standard forecast or significant change
Winds:
from the SW (220 degrees) at 11.5 mph (10 knots: 5.1 m/s)
Visibility:
6 or more mile(s) (9.7+ km)
Ceiling:
20,000 feet AGL
Clouds:
Scattered Clouds at 4,500 feet AGL
Broken Cloud Cover at 20,000 feet AGL
Weather:
no significant weather observed at this time
TAF text:
FM270100 VRB04KT P6SM SCT050 BKN150
Forecast period:
Friday May 27 2016 01:00 UTC - Friday May 27 2016 09:00 UTC
Forecast type:
FROM: standard forecast or significant change
Winds:
variable wind direction at 4.6 mph (4 knots: 2.1 m/s)
Visibility:
6 or more mile(s) (9.7+ km)
Ceiling:
15,000 feet AGL
Clouds:
Scattered Clouds at 5,000 feet AGL
Broken Cloud Cover at 15,000 feet AGL
Weather:
no significant weather observed at this time
TAF text:
FM270900 20005KT 3SM BR SCT018 BKN200
Forecast period:
Friday May 27 2016 09:00 UTC - Friday May 27 2016 13:00 UTC
Forecast type:
FROM: standard forecast or significant change
Winds:
from the SSW (200 degrees) at 5.8 mph (5 knots: 2.6 m/s)
Visibility:
3 mile(s) (4.8 km)
Ceiling:
20,000 feet AGL
Clouds:
Scattered Clouds at 1,800 feet AGL
Broken Cloud Cover at 20,000 feet AGL
Weather:
Moderate Mist
TAF text:
FM271300 20009KT P6SM BKN035
Forecast period:
Friday May 27 2016 13:00 UTC - Friday May 27 2016 18:00 UTC
Forecast type:
FROM: standard forecast or significant change
Winds:
from the SSW (200 degrees) at 10.4 mph (9 knots: 4.6 m/s)
Visibility:
6 or more mile(s) (9.7+ km)
Ceiling:
3,500 feet AGL
Clouds:
Broken Cloud Cover at 3,500 feet AGL
Weather:
no significant weather observed at this time
FBO's on the Field
FBO Company Facility Photos Services Transportation Aviation Fuel Prices: Prices include tax
Catering Weather Repair Courtesy Rental Type 100LL JetA JetA+ MOGAS 8087
 
Avflight Flint

This FBO has not yet been rated
FS:Avfuel
Last Updated: May-16
Login to update fuel prices
SS:
Contact Avflight FlintMore FBO Information
 
Add another FBO Facility Photos Catering Weather Repair Courtesy Rental Type 100LL JetA JetA+ MOGAS 8087
Services Transportation Aviation Fuel Prices: Prices include tax


model-print
model-print
model-print
model-print